Time;durP1;ratioP1;P1;durP2;ratioP2;P2;SDS_P1;SDS_P2;PMS_P1;PMS_P2;Temp;Humidity;BMP_temperature;BMP_pressure;BME280_temperature;BME280_humidity;BME280_pressure;Samples;Min_cycle;Max_cycle;Signal;HPM_P1;HPM_P2
2022/12/25 00:01:31;;;;;;;29.50;9.20;;;;;;;5.53;83.08;100432.53;10469135;28;20060;-77
2022/12/25 00:06:34;;;;;;;37.08;9.25;;;;;;;5.71;84.00;100446.59;10475654;28;20044;-77
2022/12/25 00:11:36;;;;;;;30.65;8.55;;;;;;;6.02;83.65;100444.75;10473316;28;20041;-77
2022/12/25 00:16:41;;;;;;;35.88;9.07;;;;;;;6.08;82.83;100452.34;10510706;28;20086;-78
2022/12/25 00:21:44;;;;;;;35.97;10.68;;;;;;;5.93;82.88;100475.50;10503227;28;20185;-78
2022/12/25 00:26:47;;;;;;;36.83;9.05;;;;;;;6.02;83.10;100472.25;10493696;28;20089;-78
2022/12/25 00:31:51;;;;;;;26.70;7.72;;;;;;;6.24;83.28;100479.81;10498108;28;20048;-77
2022/12/25 00:36:54;;;;;;;36.92;8.23;;;;;;;6.52;82.82;100481.63;10515277;28;20037;-76
2022/12/25 00:47:18;;;;;;;30.52;6.85;;;;;;;6.58;81.14;100486.59;10502264;28;20098;-77
2022/12/25 00:52:21;;;;;;;32.53;8.05;;;;;;;6.54;80.77;100469.03;10469997;28;20105;-78
2022/12/25 00:57:24;;;;;;;25.70;7.20;;;;;;;6.40;80.72;100479.72;10470117;28;20401;-78
2022/12/25 01:02:28;;;;;;;40.75;9.20;;;;;;;6.31;80.96;100483.81;10467737;28;20442;-78
2022/12/25 01:07:31;;;;;;;32.22;8.10;;;;;;;6.32;81.23;100485.53;10482299;28;20076;-78
2022/12/25 01:12:37;;;;;;;30.83;10.48;;;;;;;6.23;80.66;100474.59;10492790;28;20052;-79
2022/12/25 01:17:42;;;;;;;29.50;11.15;;;;;;;6.02;80.48;100480.25;10480546;28;20123;-78
2022/12/25 01:22:45;;;;;;;40.40;10.75;;;;;;;6.02;80.71;100482.94;10490247;28;20055;-78
2022/12/25 01:27:48;;;;;;;38.28;12.20;;;;;;;6.00;80.68;100481.31;10465283;28;20056;-78
2022/12/25 01:32:52;;;;;;;35.10;10.38;;;;;;;5.90;80.35;100475.69;10468198;28;20049;-79
2022/12/25 01:37:55;;;;;;;30.98;9.90;;;;;;;5.69;80.43;100476.00;10473182;28;20098;-79
2022/12/25 01:42:58;;;;;;;32.20;11.18;;;;;;;5.66;80.71;100484.19;10483207;28;20522;-78
2022/12/25 01:48:06;;;;;;;32.50;9.77;;;;;;;5.65;80.85;100494.91;10483549;28;20114;-79
2022/12/25 01:53:09;;;;;;;46.65;15.23;;;;;;;5.73;80.92;100490.00;10456923;28;20575;-79
2022/12/25 01:58:12;;;;;;;36.30;14.10;;;;;;;5.79;80.70;100494.97;10458394;28;20052;-78
2022/12/25 02:03:17;;;;;;;38.58;11.38;;;;;;;5.85;80.73;100499.09;10483747;28;20110;-79
2022/12/25 02:08:21;;;;;;;30.75;12.55;;;;;;;5.85;80.38;100483.09;10478651;28;20116;-78
2022/12/25 02:13:24;;;;;;;28.00;9.88;;;;;;;5.76;80.31;100468.50;10484607;28;20045;-78
2022/12/25 02:18:37;;;;;;;35.08;10.73;;;;;;;5.66;80.67;100486.84;10482869;28;20043;-78
2022/12/25 02:24:21;;;;;;;34.28;9.82;;;;;;;5.64;80.71;100495.88;10470317;28;20090;-76
2022/12/25 02:29:33;;;;;;;35.92;10.45;;;;;;;5.59;80.59;100495.28;10490234;28;20105;-78
2022/12/25 02:34:44;;;;;;;37.08;10.65;;;;;;;5.68;80.60;100471.63;10496460;28;20055;-78
2022/12/25 02:39:58;;;;;;;32.20;10.82;;;;;;;5.64;80.55;100487.88;10461551;28;20513;-78
2022/12/25 03:06:45;;;;;;;24.58;9.02;;;;;;;5.87;80.77;100459.84;10508095;28;20144;-78
2022/12/25 03:11:55;;;;;;;38.10;8.90;;;;;;;5.96;80.60;100464.63;10481347;28;20052;-79
2022/12/25 03:17:00;;;;;;;28.23;9.48;;;;;;;6.00;80.48;100473.31;10481388;28;20082;-78
2022/12/25 03:27:28;;;;;;;28.80;8.50;;;;;;;6.05;80.51;100476.56;10488272;28;20049;-77
2022/12/25 03:32:41;;;;;;;25.42;8.27;;;;;;;6.07;80.43;100462.19;10475681;28;20087;-78
2022/12/25 04:37:07;;;;;;;31.55;10.48;;;;;;;5.49;87.10;100429.22;10514074;28;20467;-78
2022/12/25 04:42:10;;;;;;;35.28;10.73;;;;;;;5.48;87.10;100422.16;10476830;28;20055;-78
2022/12/25 04:47:13;;;;;;;28.92;11.85;;;;;;;5.53;87.20;100411.22;10477301;28;20110;-78
2022/12/25 04:52:17;;;;;;;42.97;12.43;;;;;;;5.56;87.33;100421.69;10485870;28;20402;-78
2022/12/25 04:57:20;;;;;;;38.70;11.98;;;;;;;5.53;87.51;100429.88;10505330;28;20410;-78
2022/12/25 05:02:22;;;;;;;34.47;10.80;;;;;;;5.56;87.66;100427.03;10490842;28;20046;-79
2022/12/25 05:07:27;;;;;;;35.67;11.25;;;;;;;5.54;87.62;100422.75;10479742;28;20052;-79
2022/12/25 05:12:30;;;;;;;26.75;11.05;;;;;;;5.52;87.80;100419.34;10487312;28;20036;-78
2022/12/25 05:17:33;;;;;;;23.60;10.25;;;;;;;5.48;87.92;100413.31;10457530;28;20103;-78
2022/12/25 05:22:37;;;;;;;31.00;10.32;;;;;;;5.54;87.80;100415.63;10481248;28;20041;-79
2022/12/25 05:27:40;;;;;;;34.97;11.57;;;;;;;5.55;87.68;100429.81;10504062;28;20072;-79
2022/12/25 05:32:43;;;;;;;27.55;11.43;;;;;;;5.55;87.51;100424.47;10509767;28;20040;-79
2022/12/25 05:37:47;;;;;;;34.58;11.70;;;;;;;5.45;87.86;100414.34;10514067;28;20045;-78
2022/12/25 05:42:50;;;;;;;28.10;11.90;;;;;;;5.48;87.87;100416.81;10478691;28;20452;-78
2022/12/25 05:47:53;;;;;;;28.55;11.10;;;;;;;5.61;87.75;100421.44;10486973;28;20106;-78
2022/12/25 05:52:57;;;;;;;30.90;11.15;;;;;;;5.57;87.92;100409.22;10505908;28;20110;-79
2022/12/25 05:58:10;;;;;;;27.80;10.30;;;;;;;5.58;87.83;100409.16;10491296;28;20045;-79
2022/12/25 06:03:13;;;;;;;23.30;11.32;;;;;;;5.63;87.96;100407.06;10469748;28;20045;-79
2022/12/25 06:08:17;;;;;;;22.60;11.13;;;;;;;5.72;87.85;100406.50;10480049;28;20037;-78
2022/12/25 06:13:20;;;;;;;23.67;10.13;;;;;;;5.78;87.90;100407.09;10498407;28;20047;-78
2022/12/25 06:18:23;;;;;;;23.77;10.50;;;;;;;5.71;87.89;100395.97;10478990;28;20057;-78
2022/12/25 06:23:27;;;;;;;26.92;12.43;;;;;;;5.74;88.05;100374.44;10467744;28;20172;-77
2022/12/25 06:28:30;;;;;;;23.40;11.48;;;;;;;5.84;87.86;100380.06;10485569;28;20052;-78
2022/12/25 06:33:33;;;;;;;21.92;10.90;;;;;;;5.85;87.92;100381.78;10474405;28;20049;-78
2022/12/25 06:38:38;;;;;;;19.65;10.65;;;;;;;5.86;87.63;100379.00;10485578;28;20044;-78
2022/12/25 06:43:40;;;;;;;20.98;9.93;;;;;;;5.85;87.66;100384.44;10475701;28;20048;-77
2022/12/25 06:48:48;;;;;;;19.40;10.90;;;;;;;5.90;87.86;100387.69;10487215;28;20048;-78
2022/12/25 06:53:53;;;;;;;21.50;10.38;;;;;;;5.88;87.73;100378.94;10488767;28;20075;-77
2022/12/25 06:58:58;;;;;;;22.92;9.57;;;;;;;5.94;87.67;100373.22;10481594;28;20056;-76
2022/12/25 07:04:03;;;;;;;21.52;9.55;;;;;;;6.04;87.77;100370.84;10489895;28;20052;-76
2022/12/25 07:09:07;;;;;;;21.15;10.57;;;;;;;6.02;87.76;100360.25;10474009;28;20045;-76
2022/12/25 07:14:17;;;;;;;19.65;10.35;;;;;;;5.99;87.45;100348.94;10489536;28;20033;-80
2022/12/25 07:19:25;;;;;;;22.38;10.82;;;;;;;5.92;87.50;100351.09;10511806;28;20048;-76
2022/12/25 07:24:30;;;;;;;22.88;6.68;;;;;;;6.04;87.89;100344.19;10511010;28;20100;-79
2022/12/25 07:29:33;;;;;;;20.50;9.15;;;;;;;6.23;87.78;100334.06;10517723;28;20663;-79
2022/12/25 07:34:35;;;;;;;8.85;5.00;;;;;;;6.48;87.31;100319.13;10495093;28;20147;-79
2022/12/25 07:39:40;;;;;;;7.68;5.00;;;;;;;6.44;86.80;100328.28;10497368;28;20098;-79
2022/12/25 07:44:43;;;;;;;9.88;5.32;;;;;;;6.56;86.69;100331.03;10474672;28;20126;-78
2022/12/25 07:49:46;;;;;;;13.95;7.07;;;;;;;6.51;86.54;100343.81;10527406;28;20056;-77
2022/12/25 07:54:50;;;;;;;13.98;6.57;;;;;;;6.66;86.81;100339.28;10499627;28;20099;-78
2022/12/25 07:59:53;;;;;;;18.00;8.35;;;;;;;6.65;85.92;100318.03;10476311;28;20041;-78
2022/12/25 08:04:55;;;;;;;18.50;8.60;;;;;;;6.51;86.25;100317.13;10458944;28;20055;-78
2022/12/25 08:10:00;;;;;;;17.80;9.20;;;;;;;6.59;86.59;100311.28;10503375;28;20048;-78
2022/12/25 08:15:03;;;;;;;18.38;9.48;;;;;;;6.49;86.36;100304.81;10476051;28;20102;-78
2022/12/25 08:20:07;;;;;;;26.15;10.98;;;;;;;6.47;86.67;100318.25;10473823;28;20037;-77
2022/12/25 08:25:11;;;;;;;23.35;10.77;;;;;;;6.50;86.48;100343.88;10468215;28;20045;-76
2022/12/25 08:30:14;;;;;;;23.17;10.45;;;;;;;6.48;86.35;100345.81;10467821;28;20049;-77
2022/12/25 08:35:17;;;;;;;18.23;10.55;;;;;;;6.43;86.34;100331.91;10477692;28;20049;-77
2022/12/25 08:40:21;;;;;;;20.05;10.95;;;;;;;6.40;86.36;100328.47;10474769;28;20033;-78
2022/12/25 08:45:24;;;;;;;20.77;10.90;;;;;;;6.46;86.60;100321.88;10477097;28;20087;-77
2022/12/25 08:50:36;;;;;;;20.37;10.30;;;;;;;6.57;86.67;100308.69;10492738;28;20509;-77
2022/12/25 08:55:40;;;;;;;25.80;11.73;;;;;;;6.74;87.06;100290.72;10498698;28;20056;-78
2022/12/25 09:00:43;;;;;;;24.20;10.82;;;;;;;6.99;86.67;100296.19;10477806;28;20045;-78
2022/12/25 09:05:46;;;;;;;21.63;11.48;;;;;;;7.02;85.76;100319.13;10488791;28;20036;-77
2022/12/25 09:10:50;;;;;;;22.05;10.32;;;;;;;7.18;85.90;100318.94;10505638;28;20044;-78
2022/12/25 09:15:53;;;;;;;18.17;10.20;;;;;;;7.05;85.73;100327.81;10465585;28;20047;-78
2022/12/25 09:21:00;;;;;;;21.95;10.60;;;;;;;7.04;85.52;100323.41;10472277;28;20502;-78
2022/12/25 09:26:06;;;;;;;19.58;10.45;;;;;;;7.02;85.72;100309.31;10470858;28;20073;-76
2022/12/25 09:31:09;;;;;;;19.85;10.60;;;;;;;7.00;85.79;100331.75;10481676;28;20041;-78
2022/12/25 09:36:12;;;;;;;21.90;10.00;;;;;;;7.02;85.98;100316.44;10489528;28;20048;-77
2022/12/25 09:41:20;;;;;;;20.55;10.95;;;;;;;7.02;86.17;100303.09;10526736;28;20048;-78
2022/12/25 09:46:26;;;;;;;20.75;12.15;;;;;;;6.98;85.82;100286.44;10490742;28;20052;-78
2022/12/25 09:51:43;;;;;;;26.05;12.07;;;;;;;7.01;86.12;100272.88;10483379;28;20088;-76
2022/12/25 09:56:47;;;;;;;23.98;11.27;;;;;;;7.11;86.26;100257.09;10510467;23;20036;-78
2022/12/25 10:01:59;;;;;;;19.30;10.57;;;;;;;7.26;86.37;100239.97;10495731;28;20064;-79
2022/12/25 10:07:16;;;;;;;21.52;10.25;;;;;;;7.36;86.30;100242.88;10518276;28;20059;-80
2022/12/25 10:12:37;;;;;;;15.98;10.10;;;;;;;7.36;85.87;100258.91;10500196;28;20071;-80
2022/12/25 10:17:57;;;;;;;17.60;10.68;;;;;;;7.35;85.65;100257.22;10483770;28;20036;-79
2022/12/25 10:23:03;;;;;;;21.45;10.52;;;;;;;7.42;85.61;100260.31;10486872;28;20548;-80
2022/12/25 10:28:13;;;;;;;17.50;10.30;;;;;;;7.49;85.65;100248.22;10498050;28;20044;-79
2022/12/25 10:33:16;;;;;;;21.88;12.60;;;;;;;7.60;85.98;100260.84;10481116;28;20526;-79
2022/12/25 10:38:20;;;;;;;19.73;10.48;;;;;;;7.60;85.88;100259.03;10491545;28;20091;-78
2022/12/25 10:43:30;;;;;;;16.80;10.18;;;;;;;7.60;85.74;100267.03;10457817;28;20489;-78
2022/12/25 10:48:33;;;;;;;16.83;10.40;;;;;;;7.63;85.87;100266.81;10483480;28;20450;-78
2022/12/25 10:53:39;;;;;;;16.70;10.98;;;;;;;7.65;85.70;100274.72;10487704;28;20059;-77
2022/12/25 10:58:43;;;;;;;17.45;10.40;;;;;;;7.71;85.96;100261.78;10480171;28;20041;-79
2022/12/25 11:03:51;;;;;;;22.40;10.75;;;;;;;7.72;85.98;100227.88;10482876;28;20044;-79
2022/12/25 11:08:57;;;;;;;23.88;11.00;;;;;;;7.62;86.02;100219.66;10492754;28;20041;-80
2022/12/25 11:14:02;;;;;;;22.23;12.25;;;;;;;7.55;87.60;100209.53;10483536;28;20131;-78
2022/12/25 11:19:24;;;;;;;23.98;12.73;;;;;;;7.57;87.91;100211.13;10482929;28;20055;-80
2022/12/25 11:24:29;;;;;;;17.38;10.65;;;;;;;7.60;88.74;100234.97;10489277;28;20045;-80
2022/12/25 11:29:37;;;;;;;17.17;11.50;;;;;;;7.58;90.20;100215.50;10476533;28;20052;-80
2022/12/25 11:34:43;;;;;;;21.10;12.13;;;;;;;7.62;90.34;100194.72;10499956;28;20079;-81
2022/12/25 11:39:46;;;;;;;23.98;12.88;;;;;;;7.68;90.28;100183.63;10475252;28;20061;-81
2022/12/25 11:44:56;;;;;;;16.27;10.73;;;;;;;7.72;90.54;100169.91;10467883;28;20505;-80
2022/12/25 11:50:02;;;;;;;19.40;10.68;;;;;;;7.80;90.54;100180.03;10482119;28;20140;-80
2022/12/25 11:55:14;;;;;;;21.75;11.63;;;;;;;7.82;90.58;100166.56;10484963;28;20143;-80
2022/12/25 12:00:19;;;;;;;21.50;11.80;;;;;;;7.80;90.63;100149.78;10489838;28;20533;-80
2022/12/25 12:05:26;;;;;;;22.60;13.38;;;;;;;7.80;91.03;100137.25;10487484;28;20045;-80
2022/12/25 12:10:48;;;;;;;18.77;12.93;;;;;;;7.80;90.96;100121.22;10488457;28;20053;-81
2022/12/25 12:15:53;;;;;;;22.88;12.50;;;;;;;7.73;90.99;100110.13;10489911;28;20045;-80
2022/12/25 12:21:01;;;;;;;28.15;13.10;;;;;;;7.75;92.14;100096.63;10487545;28;20071;-80
2022/12/25 12:26:05;;;;;;;23.77;12.82;;;;;;;7.77;92.63;100088.50;10488339;28;20074;-79
2022/12/25 12:31:09;;;;;;;23.77;12.98;;;;;;;7.86;91.97;100085.16;10504739;28;20551;-79
2022/12/25 12:36:14;;;;;;;27.42;13.57;;;;;;;7.92;91.96;100077.50;10494605;28;20516;-79
2022/12/25 12:41:17;;;;;;;21.20;12.45;;;;;;;7.95;91.54;100076.41;10482948;28;20094;-80
2022/12/25 12:46:23;;;;;;;23.40;12.50;;;;;;;7.91;91.62;100069.63;10475853;28;20053;-79
2022/12/25 12:51:34;;;;;;;;;;;;;;;7.93;91.75;100054.31;10461925;28;20053;-79
2022/12/25 12:56:37;;;;;;;18.35;11.98;;;;;;;7.95;92.02;100053.22;10482433;28;19928;-79
2022/12/25 13:01:51;;;;;;;19.08;12.13;;;;;;;7.94;91.43;100046.16;10490180;28;20083;-79
2022/12/25 13:07:03;;;;;;;26.00;13.07;;;;;;;7.97;91.41;100028.19;10463765;28;20099;-79
2022/12/25 13:12:07;;;;;;;25.50;13.40;;;;;;;7.91;91.31;100010.78;10488461;28;20450;-79
2022/12/25 13:17:17;;;;;;;32.08;14.93;;;;;;;7.87;91.57;99975.41;10490118;28;20052;-79
2022/12/25 13:22:24;;;;;;;33.25;15.82;;;;;;;7.81;91.79;99985.69;10481721;28;20194;-79
2022/12/25 13:27:29;;;;;;;33.35;16.30;;;;;;;7.77;91.77;99974.38;10494223;28;20048;-79
2022/12/25 13:32:33;;;;;;;30.73;15.32;;;;;;;7.79;92.12;99961.75;10518300;28;20048;-79
2022/12/25 13:37:37;;;;;;;28.23;14.75;;;;;;;7.78;91.72;99964.53;10500291;28;20055;-79
2022/12/25 13:42:40;;;;;;;27.15;14.52;;;;;;;7.84;91.42;99964.06;10482005;28;20401;-79
2022/12/25 13:47:44;;;;;;;28.27;14.73;;;;;;;7.89;91.76;99967.25;10490514;28;20040;-78
2022/12/25 13:52:56;;;;;;;27.67;15.20;;;;;;;7.90;91.47;99971.63;10476735;28;20458;-80
2022/12/25 13:58:03;;;;;;;24.02;13.15;;;;;;;7.93;91.61;99958.88;10455491;28;20048;-79
2022/12/25 14:03:08;;;;;;;23.15;13.18;;;;;;;7.94;91.53;99962.41;10477235;28;20044;-80
2022/12/25 14:08:15;;;;;;;23.45;13.73;;;;;;;7.98;91.72;99938.94;10485417;28;20055;-80
2022/12/25 14:13:21;;;;;;;27.02;14.65;;;;;;;7.97;92.01;99932.75;10483945;28;20138;-80
2022/12/25 14:18:27;;;;;;;25.35;14.18;;;;;;;8.03;91.72;99926.91;10479573;28;20090;-80
2022/12/25 14:23:39;;;;;;;23.48;13.57;;;;;;;8.01;91.72;99922.63;10471632;28;20052;-80
2022/12/25 14:28:46;;;;;;;21.25;12.23;;;;;;;7.97;91.69;99914.00;10460189;28;20155;-79
2022/12/25 14:33:52;;;;;;;24.80;13.55;;;;;;;7.99;91.70;99920.09;10481202;28;20044;-79
2022/12/25 14:38:57;;;;;;;25.38;13.80;;;;;;;8.00;91.66;99918.28;10488275;28;20067;-80
2022/12/25 14:44:02;;;;;;;24.65;13.55;;;;;;;8.03;91.71;99901.97;10489301;28;20497;-80
2022/12/25 14:49:25;;;;;;;23.05;14.30;;;;;;;8.03;91.78;99905.50;10468208;28;20056;-81
2022/12/25 14:54:28;;;;;;;26.67;14.07;;;;;;;8.01;91.67;99910.16;10473139;28;20040;-80
2022/12/25 14:59:31;;;;;;;23.10;14.52;;;;;;;8.04;91.78;99895.69;10486319;28;20090;-79
2022/12/25 15:04:35;;;;;;;22.08;14.38;;;;;;;8.03;91.84;99894.81;10488955;28;20123;-78
2022/12/25 15:09:39;;;;;;;22.77;13.55;;;;;;;8.03;91.69;99892.13;10495595;28;20056;-79
2022/12/25 15:14:42;;;;;;;24.60;13.73;;;;;;;8.04;91.75;99880.47;10480095;28;20127;-78
2022/12/25 15:19:46;;;;;;;24.23;12.98;;;;;;;8.08;91.88;99881.94;10471768;28;20056;-79
2022/12/25 15:24:49;;;;;;;19.90;14.18;;;;;;;8.13;91.87;99884.25;10477081;28;20068;-79
2022/12/25 15:29:55;;;;;;;28.48;15.10;;;;;;;8.08;91.71;99873.91;10474159;28;20169;-79
2022/12/25 15:35:17;;;;;;;29.00;16.17;;;;;;;8.10;91.87;99873.78;10492143;28;20098;-78
2022/12/25 15:40:20;;;;;;;32.47;17.60;;;;;;;8.05;91.72;99855.44;10489208;28;20486;-79
2022/12/25 15:45:26;;;;;;;32.38;17.58;;;;;;;8.05;92.00;99866.13;10489385;28;20032;-79
2022/12/25 15:50:31;;;;;;;34.05;18.60;;;;;;;8.07;91.94;99853.50;10484867;28;20040;-79
2022/12/25 15:55:56;;;;;;;35.00;17.52;;;;;;;8.06;91.94;99851.75;10486027;28;20098;-78
2022/12/25 16:00:59;;;;;;;26.13;16.70;;;;;;;8.06;91.88;99859.78;10532444;28;20044;-80
2022/12/25 16:06:03;;;;;;;28.92;17.10;;;;;;;8.09;92.19;99854.22;10528540;28;20053;-79
2022/12/25 16:11:06;;;;;;;26.35;15.65;;;;;;;8.10;92.32;99853.25;10530299;28;20033;-80
2022/12/25 16:16:09;;;;;;;24.90;14.45;;;;;;;8.20;92.42;99852.50;10531951;28;20068;-80
2022/12/25 16:21:16;;;;;;;27.52;16.55;;;;;;;8.25;92.20;99836.94;10489135;28;20037;-79
2022/12/25 16:26:19;;;;;;;25.15;14.43;;;;;;;8.20;92.01;99818.59;10494485;28;20041;-79
2022/12/25 16:31:22;;;;;;;25.35;12.35;;;;;;;8.25;92.16;99829.75;10495683;28;20048;-78
2022/12/25 16:36:27;;;;;;;24.90;14.40;;;;;;;8.29;92.15;99823.19;10490587;28;20045;-80
2022/12/25 16:41:29;;;;;;;25.55;16.58;;;;;;;8.32;92.25;99816.75;10489683;28;20044;-79
2022/12/25 16:46:32;;;;;;;19.42;13.52;;;;;;;8.33;92.17;99807.72;10469721;28;20084;-80
2022/12/25 16:51:37;;;;;;;25.45;15.15;;;;;;;8.37;92.21;99794.00;10496116;28;20106;-79
2022/12/25 16:56:40;;;;;;;26.25;14.98;;;;;;;8.43;92.25;99797.16;10478685;28;20049;-79
2022/12/25 17:01:43;;;;;;;22.00;15.40;;;;;;;8.45;92.28;99793.38;10488415;28;20052;-78
2022/12/25 17:06:48;;;;;;;29.02;14.75;;;;;;;8.46;92.36;99795.09;10478145;28;20036;-78
2022/12/25 17:11:51;;;;;;;17.08;11.77;;;;;;;8.53;92.25;99790.94;10483282;28;20055;-79
2022/12/25 17:16:54;;;;;;;23.38;14.25;;;;;;;8.57;92.43;99792.38;10509566;28;20040;-78
2022/12/25 17:21:59;;;;;;;23.60;13.52;;;;;;;8.57;92.19;99781.69;10491792;28;20063;-79
2022/12/25 17:27:02;;;;;;;22.65;16.58;;;;;;;8.60;92.32;99794.81;10486736;28;20048;-78
2022/12/25 17:32:05;;;;;;;27.33;16.55;;;;;;;8.65;92.35;99790.91;10475558;28;20045;-78
2022/12/25 17:37:10;;;;;;;30.08;18.95;;;;;;;8.67;92.49;99783.63;10492158;28;20046;-79
2022/12/25 17:42:12;;;;;;;25.38;16.25;;;;;;;8.66;92.29;99782.75;10473756;28;20083;-79
2022/12/25 17:47:15;;;;;;;36.70;24.33;;;;;;;8.69;92.36;99768.25;10473542;28;20044;-79
2022/12/25 17:52:19;;;;;;;27.77;18.27;;;;;;;8.66;92.39;99760.47;10477239;28;20045;-79
2022/12/25 17:57:22;;;;;;;39.25;21.05;;;;;;;8.65;92.33;99748.09;10491898;28;20094;-79
2022/12/25 18:02:25;;;;;;;36.88;21.33;;;;;;;8.60;92.39;99738.59;10485750;28;20044;-80
2022/12/25 18:07:30;;;;;;;65.95;49.92;;;;;;;8.63;92.37;99750.03;10495737;28;20044;-78
2022/12/25 18:12:32;;;;;;;37.17;21.88;;;;;;;8.58;93.06;99745.91;10487554;28;20044;-80
2022/12/25 18:17:35;;;;;;;35.30;23.73;;;;;;;8.61;93.38;99751.03;10471175;28;20048;-79
2022/12/25 18:22:39;;;;;;;28.52;20.50;;;;;;;8.65;93.48;99754.28;10476095;28;20051;-79
2022/12/25 18:27:42;;;;;;;35.00;22.20;;;;;;;8.68;93.43;99747.81;10485931;28;20055;-79
2022/12/25 18:32:45;;;;;;;35.10;19.25;;;;;;;8.69;93.58;99750.34;10491809;28;20074;-78
2022/12/25 18:37:49;;;;;;;31.40;19.52;;;;;;;8.73;93.56;99748.28;10492046;28;20064;-80
2022/12/25 18:42:52;;;;;;;27.60;18.35;;;;;;;8.77;93.63;99753.25;10508983;28;20052;-80
2022/12/25 18:48:06;;;;;;;24.58;16.67;;;;;;;8.86;93.27;99750.78;10496878;28;20096;-80
2022/12/25 18:53:10;;;;;;;25.52;16.00;;;;;;;8.96;92.79;99744.50;10506071;28;20059;-79
2022/12/25 18:58:13;;;;;;;32.00;16.73;;;;;;;9.01;92.86;99728.91;10501369;28;20583;-80
2022/12/25 19:03:15;;;;;;;27.30;15.68;;;;;;;9.10;92.95;99740.66;10494701;28;20116;-78
2022/12/25 19:08:20;;;;;;;23.88;13.27;;;;;;;9.13;93.19;99729.69;10505990;28;20156;-79
2022/12/25 19:13:23;;;;;;;26.25;13.55;;;;;;;9.23;92.87;99722.56;10499986;28;20056;-80
2022/12/25 19:18:26;;;;;;;22.58;13.48;;;;;;;9.28;93.21;99728.38;10506812;28;20040;-80
2022/12/25 19:23:30;;;;;;;19.52;12.18;;;;;;;9.32;93.49;99731.63;10474502;28;20071;-80
2022/12/25 19:28:33;;;;;;;18.05;11.50;;;;;;;9.34;93.31;99727.00;10467369;28;20045;-81
2022/12/25 19:33:39;;;;;;;21.67;11.98;;;;;;;9.39;93.49;99721.25;10506430;28;20053;-81
2022/12/25 19:38:44;;;;;;;17.88;12.57;;;;;;;9.24;93.88;99720.72;10488060;28;20047;-81
2022/12/25 19:43:48;;;;;;;20.40;12.23;;;;;;;9.22;94.07;99723.56;10485481;28;20041;-81
2022/12/25 19:48:51;;;;;;;21.42;13.02;;;;;;;9.35;93.17;99719.81;10482902;28;20520;-79
2022/12/25 19:53:57;;;;;;;26.38;14.13;;;;;;;9.28;94.21;99720.34;10483823;28;20048;-80
2022/12/25 19:59:00;;;;;;;21.27;13.20;;;;;;;9.18;93.94;99715.91;10498461;28;20045;-81
2022/12/25 20:04:03;;;;;;;23.13;12.82;;;;;;;9.31;93.74;99715.72;10487294;28;20036;-79
2022/12/25 20:09:08;;;;;;;11.65;7.53;;;;;;;9.03;95.48;99724.28;10476064;28;20055;-78
2022/12/25 20:14:14;;;;;;;20.48;11.82;;;;;;;9.16;95.87;99731.25;10482795;28;20045;-81
2022/12/25 20:19:18;;;;;;;20.08;9.85;;;;;;;9.01;96.73;99715.50;10493551;28;20060;-78
2022/12/25 20:24:23;;;;;;;19.98;9.98;;;;;;;8.76;100.00;99714.06;10485034;28;20040;-79
2022/12/25 20:29:26;;;;;;;13.75;9.07;;;;;;;8.88;100.00;99728.25;10484366;28;20045;-80
2022/12/25 20:34:29;;;;;;;16.85;11.52;;;;;;;8.96;100.00;99743.66;10489696;28;20041;-82
2022/12/25 20:39:33;;;;;;;13.05;9.80;;;;;;;8.68;100.00;99748.66;10480080;28;20064;-80
2022/12/25 20:44:37;;;;;;;18.10;12.30;;;;;;;9.01;100.00;99738.78;10499268;28;20055;-80
2022/12/25 20:49:40;;;;;;;14.23;8.10;;;;;;;8.79;100.00;99742.41;10483330;28;20036;-80
2022/12/25 20:54:44;;;;;;;14.63;9.15;;;;;;;9.01;99.59;99734.25;10499215;28;20513;-79
2022/12/25 20:59:47;;;;;;;12.55;7.95;;;;;;;8.85;100.00;99749.94;10477071;28;20055;-78
2022/12/25 21:04:50;;;;;;;15.57;7.90;;;;;;;8.89;100.00;99748.72;10495479;28;20450;-77
2022/12/25 21:09:58;;;;;;;14.98;8.73;;;;;;;8.90;100.00;99754.91;10477839;28;20055;-77
2022/12/25 21:15:00;;;;;;;14.80;9.80;;;;;;;9.00;100.00;99754.00;10472919;28;20045;-77
2022/12/25 21:20:04;;;;;;;14.52;9.65;;;;;;;8.89;100.00;99753.22;10461164;28;20044;-79
2022/12/25 21:25:09;;;;;;;14.07;10.35;;;;;;;9.13;99.54;99761.00;10496745;28;20071;-78
2022/12/25 21:30:12;;;;;;;22.02;11.35;;;;;;;9.37;97.40;99758.06;10495298;28;20052;-78
2022/12/25 21:35:17;;;;;;;15.43;9.65;;;;;;;9.16;99.16;99739.28;10461103;28;20476;-78
2022/12/25 21:40:21;;;;;;;13.98;9.60;;;;;;;9.19;98.00;99755.13;10462443;28;20036;-79
2022/12/25 21:45:24;;;;;;;14.63;10.18;;;;;;;9.35;97.89;99754.66;10462533;28;20068;-79
2022/12/25 21:56:01;;;;;;;15.15;8.95;;;;;;;9.09;98.41;99749.69;10493087;28;20037;-80
2022/12/25 22:01:04;;;;;;;16.70;10.52;;;;;;;9.18;98.49;99774.84;10501421;28;20048;-78
2022/12/25 22:22:10;;;;;;;17.92;11.20;;;;;;;9.35;98.00;99766.25;10487732;28;20060;-77
2022/12/25 22:27:14;;;;;;;19.58;11.43;;;;;;;9.37;97.33;99779.50;10494271;28;20051;-77
2022/12/25 22:32:18;;;;;;;17.92;14.20;;;;;;;9.26;97.31;99783.94;10488203;28;20136;-77
2022/12/25 22:37:21;;;;;;;21.52;12.32;;;;;;;9.15;98.42;99786.69;10517398;28;20036;-79
2022/12/25 22:42:25;;;;;;;21.20;16.63;;;;;;;9.36;97.39;99769.78;10496056;28;20045;-77
2022/12/25 22:47:28;;;;;;;21.38;15.65;;;;;;;8.98;99.72;99776.53;10453723;28;20091;-79
2022/12/25 22:52:30;;;;;;;24.52;16.88;;;;;;;9.18;97.96;99786.41;10464403;28;20044;-79
2022/12/25 22:57:35;;;;;;;25.20;17.27;;;;;;;9.12;98.70;99791.47;10498539;28;20049;-79
2022/12/25 23:02:38;;;;;;;29.98;19.85;;;;;;;9.16;98.00;99795.56;10479186;28;20077;-79
2022/12/25 23:07:41;;;;;;;29.85;19.73;;;;;;;9.35;96.78;99797.53;10506067;28;20049;-78
2022/12/25 23:34:09;;;;;;;32.67;21.48;;;;;;;9.37;96.27;99793.75;10509689;28;20064;-79
2022/12/25 23:39:11;;;;;;;35.55;24.52;;;;;;;9.35;97.37;99798.41;10490650;28;20386;-79
2022/12/25 23:44:16;;;;;;;33.38;22.20;;;;;;;9.34;96.77;99799.38;10488947;28;20045;-80
2022/12/25 23:49:18;;;;;;;30.00;21.13;;;;;;;9.42;95.51;99783.47;10492018;28;20052;-78
2022/12/25 23:54:24;;;;;;;30.98;20.63;;;;;;;9.08;98.41;99806.06;10471441;28;20406;-77
2022/12/25 23:59:30;;;;;;;33.15;22.13;;;;;;;9.29;96.74;99801.59;10489771;28;20098;-78
